Terminal Aerodrome Forecast
Issued by NWS North Platte, NE

Home | Current Version | Previous Version | Graphics & Text | Print | Product List | Glossary On
Versions: 1 2 3 4 5 6 7 8 9 10 11 12 13 14 15
482
FTUS43 KLBF 191724
TAFVTN
TAF
KVTN 191724Z 1918/2018 36013KT 4SM -SN OVC020
      TEMPO 1918/1920 2SM -SN
     FM192000 01012G18KT 2SM -SN OVC025
     FM200200 01011KT 1/2SM SN OVC025
     FM200900 34010KT 2SM -SN OVC030
     FM201500 32011G19KT P6SM BKN035=

USA.gov is the U.S. government's official web portal to all federal, state and local government web resources and services.